Time;durP1;ratioP1;P1;durP2;ratioP2;P2;SDS_P1;SDS_P2;PMS_P1;PMS_P2;Temp;Humidity;BMP_temperature;BMP_pressure;BME280_temperature;BME280_humidity;BME280_pressure;Samples;Min_cycle;Max_cycle;Signal;HPM_P1;HPM_P2
2023/03/29 00:00:33;;;;;;;2.50;2.10;;;5.10;99.90;;;;;;5089185;28;20204;-69
2023/03/29 00:03:01;;;;;;;1.80;1.67;;;5.10;99.90;;;;;;5087810;28;20185;-69
2023/03/29 00:05:27;;;;;;;1.83;1.50;;;5.10;99.90;;;;;;5087706;28;20876;-69
2023/03/29 00:07:53;;;;;;;2.37;2.17;;;5.00;99.90;;;;;;5089052;28;20428;-70
2023/03/29 00:10:21;;;;;;;4.60;1.93;;;5.10;99.90;;;;;;5089093;28;20555;-69
2023/03/29 00:12:47;;;;;;;2.72;1.88;;;5.20;99.90;;;;;;5088962;28;20186;-69
2023/03/29 00:15:13;;;;;;;1.97;1.73;;;5.20;99.90;;;;;;5088880;28;20224;-69
2023/03/29 00:17:39;;;;;;;2.60;2.30;;;5.20;99.90;;;;;;5089099;28;20813;-69
2023/03/29 00:20:08;;;;;;;2.83;2.10;;;5.30;99.90;;;;;;5088998;28;20401;-69
2023/03/29 00:22:36;;;;;;;6.93;2.10;;;5.40;99.90;;;;;;5088882;28;20486;-69
2023/03/29 00:25:02;;;;;;;2.10;1.90;;;5.30;99.90;;;;;;5088832;28;20841;-68
2023/03/29 00:27:28;;;;;;;2.40;1.67;;;5.40;99.90;;;;;;5088812;28;20963;-69
2023/03/29 00:29:55;;;;;;;2.30;2.13;;;5.30;99.90;;;;;;5089417;28;20518;-69
2023/03/29 00:32:21;;;;;;;1.80;1.67;;;5.30;99.90;;;;;;5087551;28;20635;-69
2023/03/29 00:34:49;;;;;;;5.00;2.03;;;5.30;99.90;;;;;;5087120;28;21002;-69
2023/03/29 00:37:18;;;;;;;1.95;1.77;;;5.30;99.90;;;;;;5088700;28;20435;-69
2023/03/29 00:39:45;;;;;;;2.10;1.80;;;5.20;99.90;;;;;;5088701;28;20677;-69
2023/03/29 00:42:12;;;;;;;3.50;2.10;;;5.20;99.90;;;;;;5087066;28;20447;-69
2023/03/29 00:44:56;;;;;;;2.00;1.83;;;5.10;99.90;;;;;;5087100;28;20427;-70
2023/03/29 00:47:44;;;;;;;4.00;1.97;;;5.10;99.90;;;;;;5086777;28;20514;-70
2023/03/29 00:50:30;;;;;;;2.20;2.00;;;5.20;99.90;;;;;;5088201;28;20447;-69
2023/03/29 00:53:21;;;;;;;2.45;1.80;;;5.30;99.90;;;;;;5087774;28;20423;-70
2023/03/29 00:56:10;;;;;;;2.80;2.13;;;5.20;99.90;;;;;;5051189;28;20216;-70
2023/03/29 00:58:47;;;;;;;2.70;2.50;;;5.20;99.90;;;;;;5088324;28;20411;-69
2023/03/29 01:01:18;;;;;;;2.85;2.17;;;5.10;99.90;;;;;;5088157;28;20823;-70
2023/03/29 01:03:52;;;;;;;3.22;2.33;;;5.20;99.90;;;;;;5088588;28;20271;-70
2023/03/29 01:06:21;;;;;;;3.10;2.20;;;5.30;99.90;;;;;;5088451;28;20196;-69
2023/03/29 01:08:53;;;;;;;2.90;1.90;;;5.30;99.90;;;;;;5087223;28;20508;-69
2023/03/29 01:11:26;;;;;;;3.87;2.33;;;5.30;99.90;;;;;;5088477;28;21271;-69
2023/03/29 01:14:02;;;;;;;4.97;3.10;;;5.40;99.90;;;;;;5088309;28;21005;-70
2023/03/29 01:16:29;;;;;;;6.73;2.43;;;5.40;99.90;;;;;;5088449;28;20516;-70
2023/03/29 01:18:57;;;;;;;3.43;3.00;;;5.30;99.90;;;;;;5087088;28;20422;-69
2023/03/29 01:21:31;;;;;;;9.77;2.20;;;5.20;99.90;;;;;;5088410;28;20474;-69
2023/03/29 01:24:06;;;;;;;2.97;2.17;;;5.20;99.90;;;;;;5088371;28;20429;-70
2023/03/29 01:26:59;;;;;;;3.53;2.23;;;5.30;99.90;;;;;;5088512;28;20414;-69
2023/03/29 01:29:38;;;;;;;2.40;2.00;;;5.50;99.90;;;;;;5086830;28;20928;-70
2023/03/29 01:32:25;;;;;;;4.03;2.78;;;5.70;99.90;;;;;;5088365;28;20887;-69
2023/03/29 01:35:02;;;;;;;4.33;2.30;;;5.70;99.90;;;;;;5088046;28;20267;-70
2023/03/29 01:37:40;;;;;;;2.53;2.23;;;5.80;99.90;;;;;;5088108;28;20450;-69
2023/03/29 01:40:06;;;;;;;3.30;2.93;;;5.80;99.90;;;;;;5089273;28;20426;-71
2023/03/29 01:42:41;;;;;;;3.43;2.60;;;5.80;99.90;;;;;;5092148;28;20474;-69
2023/03/29 01:45:09;;;;;;;5.05;3.20;;;5.90;99.90;;;;;;5092228;28;20419;-69
2023/03/29 01:47:58;;;;;;;3.87;3.23;;;5.90;99.90;;;;;;5092513;28;20265;-69
2023/03/29 01:50:36;;;;;;;4.93;3.03;;;6.00;99.90;;;;;;5092243;28;20427;-69
2023/03/29 01:53:10;;;;;;;3.30;3.00;;;6.00;99.90;;;;;;5094813;28;20407;-70
2023/03/29 01:55:41;;;;;;;3.37;3.07;;;6.00;99.90;;;;;;5094332;28;20471;-69
2023/03/29 01:58:10;;;;;;;4.53;2.87;;;6.10;99.90;;;;;;5094211;28;20417;-70
2023/03/29 02:00:38;;;;;;;7.00;3.20;;;6.20;99.90;;;;;;5093371;28;20436;-69
2023/03/29 02:03:08;;;;;;;7.13;3.10;;;6.30;99.90;;;;;;5093350;28;20415;-70
2023/03/29 02:05:36;;;;;;;7.63;3.33;;;6.40;99.90;;;;;;5093127;28;20461;-70
2023/03/29 02:08:04;;;;;;;4.60;2.80;;;6.40;99.90;;;;;;5091358;28;20416;-70
2023/03/29 02:10:32;;;;;;;2.67;2.47;;;6.50;99.90;;;;;;5092616;28;20413;-70
2023/03/29 02:12:58;;;;;;;3.20;2.80;;;6.50;99.90;;;;;;5093896;28;20420;-69
2023/03/29 02:15:24;;;;;;;2.37;2.17;;;6.60;99.90;;;;;;5093748;28;20955;-69
2023/03/29 02:17:50;;;;;;;4.80;2.40;;;6.70;99.90;;;;;;5093634;28;20446;-70
2023/03/29 02:20:24;;;;;;;7.13;1.73;;;6.80;99.90;;;;;;5093655;28;20522;-69
2023/03/29 02:23:13;;;;;;;2.50;1.70;;;7.00;99.90;;;;;;5093388;28;20404;-69
2023/03/29 02:25:40;;;;;;;3.70;2.03;;;7.00;99.90;;;;;;5093312;28;20879;-68
2023/03/29 02:28:06;;;;;;;2.13;1.83;;;7.00;99.90;;;;;;5093863;28;20791;-70
2023/03/29 02:31:03;;;;;;;2.33;1.83;;;7.00;99.90;;;;;;5093797;28;20511;-70
2023/03/29 02:33:52;;;;;;;3.83;2.40;;;6.90;99.90;;;;;;5094278;28;20452;-70
2023/03/29 02:36:23;;;;;;;3.27;2.10;;;7.00;99.90;;;;;;5094920;28;20408;-69
2023/03/29 02:38:51;;;;;;;2.40;2.10;;;7.00;99.90;;;;;;5095785;28;20429;-70
2023/03/29 02:41:17;;;;;;;3.13;2.40;;;7.00;99.70;;;;;;5093942;28;20432;-70
2023/03/29 02:43:45;;;;;;;2.67;2.00;;;7.10;99.10;;;;;;5090674;28;20416;-70
2023/03/29 02:46:12;;;;;;;2.57;2.33;;;7.10;99.90;;;;;;5089300;28;21148;-70
2023/03/29 02:48:38;;;;;;;7.23;2.30;;;7.00;99.90;;;;;;5090582;28;20408;-69
2023/03/29 02:51:12;;;;;;;2.70;1.60;;;7.00;99.90;;;;;;5088664;28;21082;-69
2023/03/29 02:53:42;;;;;;;2.77;1.90;;;7.10;99.90;;;;;;5090451;28;20415;-68
2023/03/29 02:56:08;;;;;;;4.03;2.37;;;7.10;99.80;;;;;;5090377;28;20503;-69
2023/03/29 02:58:35;;;;;;;2.90;2.37;;;7.20;99.90;;;;;;5090333;28;20984;-69
2023/03/29 03:01:01;;;;;;;5.17;2.30;;;7.10;99.90;;;;;;5090142;28;20194;-69
2023/03/29 03:03:27;;;;;;;1.60;1.50;;;7.10;99.90;;;;;;5090351;28;20424;-69
2023/03/29 03:05:53;;;;;;;2.07;1.57;;;7.10;99.90;;;;;;5090136;28;20913;-69
2023/03/29 03:08:19;;;;;;;3.23;1.70;;;7.10;99.90;;;;;;5090180;28;20447;-69
2023/03/29 03:10:45;;;;;;;4.60;1.70;;;7.10;99.90;;;;;;5090047;28;20209;-69
2023/03/29 03:13:11;;;;;;;1.47;1.23;;;7.10;99.90;;;;;;5089994;28;20428;-68
2023/03/29 03:15:41;;;;;;;1.57;1.17;;;7.10;99.90;;;;;;5088481;28;20962;-69
2023/03/29 03:18:08;;;;;;;2.27;1.30;;;7.20;99.90;;;;;;5088426;28;20429;-69
2023/03/29 03:20:34;;;;;;;2.07;1.53;;;7.30;99.90;;;;;;5089990;28;20440;-69
2023/03/29 03:23:02;;;;;;;2.20;1.30;;;7.30;99.60;;;;;;5088532;28;20447;-68
2023/03/29 03:25:28;;;;;;;2.37;1.30;;;7.30;99.90;;;;;;5088356;28;20848;-69
2023/03/29 03:27:54;;;;;;;2.57;0.87;;;7.40;98.90;;;;;;5089855;28;20420;-69
2023/03/29 03:30:20;;;;;;;5.73;1.40;;;7.40;99.40;;;;;;5089606;28;20545;-69
2023/03/29 03:32:46;;;;;;;1.20;1.10;;;7.40;99.80;;;;;;5089891;28;20428;-69
2023/03/29 03:35:12;;;;;;;1.97;1.17;;;7.40;99.40;;;;;;5089622;28;20221;-70
2023/03/29 03:37:39;;;;;;;1.27;0.93;;;7.50;98.10;;;;;;5089570;28;21027;-69
2023/03/29 03:40:10;;;;;;;2.30;1.10;;;7.60;97.10;;;;;;5088166;28;20465;-69
2023/03/29 03:42:38;;;;;;;1.03;0.87;;;7.70;97.80;;;;;;5088027;28;21123;-69
2023/03/29 03:45:04;;;;;;;0.90;0.80;;;7.70;98.30;;;;;;5089562;28;20416;-70
2023/03/29 03:47:30;;;;;;;4.50;1.00;;;7.60;98.80;;;;;;5089349;28;20839;-70
2023/03/29 03:49:56;;;;;;;1.43;0.90;;;7.70;97.60;;;;;;5089611;28;20424;-69
2023/03/29 03:52:22;;;;;;;1.67;0.90;;;7.80;97.00;;;;;;5088061;28;20210;-70
2023/03/29 03:54:49;;;;;;;1.07;0.97;;;7.80;98.10;;;;;;5089288;28;20541;-69
2023/03/29 03:57:14;;;;;;;1.00;0.90;;;7.80;97.80;;;;;;5089781;28;20179;-70
2023/03/29 03:59:40;;;;;;;5.50;0.80;;;7.80;97.00;;;;;;5089759;28;20416;-70
2023/03/29 04:02:06;;;;;;;0.90;0.70;;;7.90;96.90;;;;;;5089203;28;20284;-69
2023/03/29 04:04:32;;;;;;;4.63;0.80;;;7.90;97.00;;;;;;5089990;28;20187;-69
2023/03/29 04:07:01;;;;;;;1.63;1.00;;;7.90;97.80;;;;;;5090021;28;20890;-69
2023/03/29 04:09:32;;;;;;;3.43;0.90;;;7.90;97.00;;;;;;5089617;28;20206;-69
2023/03/29 04:11:58;;;;;;;1.57;1.03;;;7.90;98.10;;;;;;5089452;28;20451;-69
2023/03/29 04:14:25;;;;;;;4.37;1.13;;;7.80;98.30;;;;;;5089857;28;20539;-68
2023/03/29 04:16:51;;;;;;;2.00;1.20;;;7.80;98.30;;;;;;5089621;28;20405;-69
2023/03/29 04:19:17;;;;;;;2.13;0.80;;;7.70;98.40;;;;;;5089777;28;21053;-69
2023/03/29 04:21:44;;;;;;;1.37;0.80;;;7.80;97.30;;;;;;5089600;28;20441;-69
2023/03/29 04:24:11;;;;;;;3.20;1.00;;;7.80;97.60;;;;;;5088450;28;20425;-69
2023/03/29 04:26:37;;;;;;;2.30;0.87;;;7.80;99.20;;;;;;5088077;28;20430;-69
2023/03/29 04:29:03;;;;;;;2.17;1.27;;;7.70;98.20;;;;;;5087921;28;20424;-69
2023/03/29 04:31:29;;;;;;;3.57;1.20;;;7.70;99.20;;;;;;5087980;28;20440;-68
2023/03/29 04:33:55;;;;;;;1.70;1.30;;;7.70;99.90;;;;;;5086585;28;20467;-67
2023/03/29 04:36:21;;;;;;;1.53;0.90;;;7.60;99.40;;;;;;5086426;28;20431;-68
2023/03/29 04:38:47;;;;;;;2.03;1.57;;;7.60;99.40;;;;;;5085615;28;20448;-68
2023/03/29 04:41:14;;;;;;;3.13;1.73;;;7.50;99.90;;;;;;5085856;28;20306;-68
2023/03/29 04:43:40;;;;;;;3.17;1.33;;;7.50;99.90;;;;;;5087355;28;21053;-68
2023/03/29 04:46:06;;;;;;;1.20;1.00;;;7.40;99.90;;;;;;5087473;28;20773;-69
2023/03/29 04:48:32;;;;;;;2.40;0.90;;;7.40;99.90;;;;;;5087254;28;20412;-69
2023/03/29 04:50:59;;;;;;;1.63;1.03;;;7.30;99.90;;;;;;5087149;28;20454;-69
2023/03/29 04:53:25;;;;;;;2.13;1.50;;;7.30;99.90;;;;;;5087297;28;20420;-69
2023/03/29 04:55:51;;;;;;;1.83;1.40;;;7.30;99.90;;;;;;5086936;28;20467;-69
2023/03/29 04:58:17;;;;;;;1.60;1.30;;;7.30;99.90;;;;;;5087348;28;20424;-69
2023/03/29 05:00:44;;;;;;;1.13;1.03;;;7.40;99.90;;;;;;5085728;28;20428;-68
2023/03/29 05:03:12;;;;;;;1.63;1.33;;;7.40;99.90;;;;;;5085718;28;20235;-69
2023/03/29 05:05:37;;;;;;;1.00;0.90;;;7.40;99.80;;;;;;5085753;28;20424;-69
2023/03/29 05:08:03;;;;;;;3.80;1.30;;;7.50;99.90;;;;;;5087010;28;21018;-69
2023/03/29 05:10:29;;;;;;;1.53;1.40;;;7.50;99.00;;;;;;5087091;28;20311;-68
2023/03/29 05:12:55;;;;;;;3.53;1.60;;;7.60;98.80;;;;;;5086906;28;21212;-68
2023/03/29 05:15:21;;;;;;;2.30;1.37;;;7.70;98.20;;;;;;5089862;28;20456;-69
2023/03/29 05:17:47;;;;;;;2.70;1.60;;;7.80;97.70;;;;;;5091003;28;20412;-69
2023/03/29 05:20:13;;;;;;;2.17;1.30;;;7.80;97.30;;;;;;5089466;28;20481;-69
2023/03/29 05:22:39;;;;;;;2.10;1.53;;;7.80;97.70;;;;;;5090736;28;20491;-69
2023/03/29 05:25:06;;;;;;;1.13;1.03;;;7.80;98.20;;;;;;5090935;28;20511;-69
2023/03/29 05:27:32;;;;;;;2.90;1.40;;;7.80;98.20;;;;;;5090818;28;20942;-68
2023/03/29 05:29:58;;;;;;;1.30;1.20;;;7.80;99.00;;;;;;5090855;28;20473;-68
2023/03/29 05:32:24;;;;;;;2.87;1.70;;;7.80;98.70;;;;;;5072705;28;20949;-69
2023/03/29 05:34:50;;;;;;;2.80;1.30;;;7.80;98.90;;;;;;5090691;28;20464;-70
2023/03/29 05:37:16;;;;;;;1.53;1.40;;;7.90;97.50;;;;;;5090558;28;20460;-68
2023/03/29 05:39:42;;;;;;;2.33;1.40;;;7.90;98.60;;;;;;5090971;28;20416;-69
2023/03/29 05:42:11;;;;;;;5.10;1.40;;;7.90;98.60;;;;;;5090345;28;21003;-69
2023/03/29 05:44:36;;;;;;;2.23;1.47;;;7.90;98.90;;;;;;5090554;28;20190;-69
2023/03/29 05:47:02;;;;;;;2.30;1.47;;;8.00;98.90;;;;;;5090491;28;20424;-69
2023/03/29 05:49:28;;;;;;;2.30;1.10;;;7.90;98.80;;;;;;5088951;28;20205;-69
2023/03/29 05:51:55;;;;;;;2.30;1.33;;;8.00;98.00;;;;;;5090213;28;20289;-69
2023/03/29 05:54:22;;;;;;;2.00;1.10;;;8.10;98.40;;;;;;5090477;28;20206;-69
2023/03/29 05:56:48;;;;;;;2.37;1.17;;;8.00;98.40;;;;;;5090424;28;20424;-68
2023/03/29 05:59:13;;;;;;;2.93;1.07;;;8.20;97.50;;;;;;5090325;28;20781;-69
2023/03/29 06:01:40;;;;;;;2.70;1.03;;;8.20;97.90;;;;;;5090186;28;20202;-68
2023/03/29 06:04:06;;;;;;;1.57;0.90;;;8.30;97.20;;;;;;5090180;28;20191;-68
2023/03/29 06:06:32;;;;;;;1.67;1.10;;;8.40;97.10;;;;;;5090213;28;20421;-68
2023/03/29 06:08:58;;;;;;;4.90;1.20;;;8.50;97.00;;;;;;5090163;28;20182;-68
2023/03/29 06:11:25;;;;;;;1.33;0.97;;;8.40;98.20;;;;;;5090453;28;21121;-69
2023/03/29 06:13:51;;;;;;;6.47;1.40;;;8.40;98.40;;;;;;5090240;28;20178;-69
2023/03/29 06:16:17;;;;;;;2.10;1.03;;;8.50;96.60;;;;;;5089138;28;20412;-69
2023/03/29 06:18:43;;;;;;;2.10;1.00;;;8.50;96.30;;;;;;5090363;28;20817;-69
2023/03/29 06:21:09;;;;;;;2.43;1.20;;;8.60;97.10;;;;;;5090327;28;20455;-68
2023/03/29 06:23:35;;;;;;;3.70;1.37;;;8.70;96.90;;;;;;5090355;28;20424;-68
2023/03/29 06:26:01;;;;;;;9.80;1.40;;;8.70;96.30;;;;;;5090093;28;20499;-69
2023/03/29 06:28:27;;;;;;;1.97;1.47;;;8.80;96.90;;;;;;5090333;28;20503;-68
2023/03/29 06:30:55;;;;;;;1.13;1.00;;;8.80;96.30;;;;;;5090145;28;20206;-68
2023/03/29 06:33:24;;;;;;;1.10;0.90;;;8.90;96.10;;;;;;5088665;28;20468;-69
2023/03/29 06:35:49;;;;;;;2.43;1.00;;;9.00;95.50;;;;;;5089689;28;20462;-68
2023/03/29 06:38:16;;;;;;;4.27;1.33;;;9.10;95.30;;;;;;5089526;28;20440;-69
2023/03/29 06:40:43;;;;;;;1.23;1.07;;;9.20;95.80;;;;;;5089513;28;20198;-68
2023/03/29 06:43:09;;;;;;;1.27;0.77;;;9.30;96.50;;;;;;5089514;28;21087;-68
2023/03/29 06:45:36;;;;;;;11.40;1.00;;;9.30;96.10;;;;;;5089330;28;20412;-68
2023/03/29 06:48:03;;;;;;;3.80;2.20;;;9.50;97.10;;;;;;5089463;28;20500;-68
2023/03/29 06:50:29;;;;;;;8.10;1.37;;;9.50;95.60;;;;;;5089079;28;20447;-68
2023/03/29 06:52:56;;;;;;;3.93;1.30;;;9.60;96.00;;;;;;5087610;28;20487;-69
2023/03/29 06:55:22;;;;;;;6.40;1.20;;;9.60;94.60;;;;;;5087597;28;20460;-68
2023/03/29 06:57:47;;;;;;;1.20;0.80;;;9.50;94.10;;;;;;5087702;28;20423;-68
2023/03/29 07:00:27;;;;;;;3.10;1.00;;;9.40;94.80;;;;;;5089103;28;20417;-69
2023/03/29 07:02:53;;;;;;;1.10;0.80;;;9.50;94.80;;;;;;5089101;28;20188;-69
2023/03/29 07:05:20;;;;;;;4.30;1.40;;;9.60;95.20;;;;;;5089127;28;21010;-69
2023/03/29 07:07:54;;;;;;;2.47;0.93;;;9.50;94.10;;;;;;5089105;28;20451;-70
2023/03/29 07:10:31;;;;;;;3.10;1.47;;;9.50;94.30;;;;;;5088690;28;20435;-70
2023/03/29 07:12:59;;;;;;;3.73;1.00;;;9.50;94.20;;;;;;5088967;28;20426;-69
2023/03/29 07:15:26;;;;;;;1.83;1.37;;;9.60;95.00;;;;;;5088826;28;21139;-69
2023/03/29 07:17:52;;;;;;;2.43;1.07;;;9.70;95.80;;;;;;5088698;28;20923;-68
2023/03/29 07:20:18;;;;;;;4.83;1.37;;;9.70;95.30;;;;;;5088441;28;20491;-69
2023/03/29 07:22:46;;;;;;;2.87;1.13;;;9.60;94.80;;;;;;5088564;28;20416;-69
2023/03/29 07:25:12;;;;;;;1.43;0.90;;;9.70;96.10;;;;;;5089073;28;20511;-68
2023/03/29 07:27:39;;;;;;;7.17;1.40;;;9.80;95.30;;;;;;5088322;28;20520;-68
2023/03/29 07:30:10;;;;;;;10.73;1.70;;;9.80;94.20;;;;;;5089226;28;20934;-68
2023/03/29 07:32:40;;;;;;;2.40;1.40;;;9.90;94.60;;;;;;5088727;28;20512;-69
2023/03/29 07:35:08;;;;;;;6.10;1.30;;;9.90;94.80;;;;;;5088874;28;20457;-69
2023/03/29 07:37:36;;;;;;;3.00;1.00;;;10.00;95.20;;;;;;5086491;28;20439;-68
2023/03/29 07:40:11;;;;;;;4.87;1.33;;;10.10;94.60;;;;;;5087296;28;20426;-69
2023/03/29 07:42:38;;;;;;;2.67;1.20;;;10.20;95.10;;;;;;5088692;28;20432;-69
2023/03/29 07:45:05;;;;;;;17.53;1.30;;;10.30;95.00;;;;;;5088861;28;20477;-68
2023/03/29 07:47:30;;;;;;;2.03;1.67;;;10.10;95.10;;;;;;5088545;28;20419;-68
2023/03/29 07:49:57;;;;;;;3.17;1.20;;;10.20;95.90;;;;;;5088276;28;20418;-68
2023/03/29 07:52:23;;;;;;;11.40;1.47;;;10.20;96.70;;;;;;5086914;28;20597;-69
2023/03/29 07:54:49;;;;;;;6.57;1.30;;;10.20;97.40;;;;;;5088380;28;20464;-68
2023/03/29 07:57:14;;;;;;;9.77;1.40;;;10.20;96.60;;;;;;5088486;28;20181;-68
2023/03/29 07:59:40;;;;;;;6.43;1.60;;;10.30;96.20;;;;;;5087878;28;20549;-69
2023/03/29 08:02:07;;;;;;;23.20;1.80;;;10.40;96.40;;;;;;5087994;28;20284;-68
2023/03/29 08:04:33;;;;;;;3.57;1.20;;;10.40;96.00;;;;;;5088281;28;20977;-69
2023/03/29 08:06:59;;;;;;;3.47;1.40;;;10.40;95.10;;;;;;5087174;28;20418;-69
2023/03/29 08:09:26;;;;;;;5.00;1.33;;;10.50;95.90;;;;;;5087061;28;20262;-69
2023/03/29 08:11:52;;;;;;;9.67;1.47;;;10.40;95.60;;;;;;5088194;28;20211;-69
2023/03/29 08:14:18;;;;;;;4.60;1.30;;;10.40;96.70;;;;;;5088196;28;20513;-68
2023/03/29 08:16:43;;;;;;;1.73;1.30;;;10.50;95.60;;;;;;5088449;28;20413;-70
2023/03/29 08:19:09;;;;;;;1.57;0.93;;;10.50;94.60;;;;;;5088402;28;20461;-69
2023/03/29 08:21:35;;;;;;;4.57;1.33;;;10.60;95.80;;;;;;5087042;28;20227;-69
2023/03/29 08:24:00;;;;;;;3.30;1.27;;;10.70;94.50;;;;;;5088237;28;20179;-68
2023/03/29 08:26:26;;;;;;;4.47;1.60;;;10.60;95.20;;;;;;5086826;28;20843;-68
2023/03/29 08:28:52;;;;;;;3.00;1.13;;;10.50;96.10;;;;;;5088454;28;20196;-69
2023/03/29 08:31:17;;;;;;;2.40;1.37;;;10.60;96.50;;;;;;5088858;28;20214;-68
2023/03/29 08:33:43;;;;;;;2.23;1.17;;;10.60;96.70;;;;;;5088757;28;20173;-69
2023/03/29 08:36:09;;;;;;;4.73;1.67;;;10.60;95.00;;;;;;5088807;28;20191;-68
2023/03/29 08:38:34;;;;;;;4.40;1.30;;;10.50;96.20;;;;;;5088469;28;20182;-69
2023/03/29 08:41:00;;;;;;;5.03;1.60;;;10.50;96.70;;;;;;5088636;28;21384;-68
2023/03/29 08:43:37;;;;;;;1.43;1.33;;;10.50;97.40;;;;;;5088597;28;20673;-69
2023/03/29 08:46:13;;;;;;;6.23;1.20;;;10.40;97.10;;;;;;5088202;28;20263;-69
2023/03/29 08:48:48;;;;;;;1.30;1.20;;;10.40;96.80;;;;;;5090447;28;20418;-68
2023/03/29 08:51:23;;;;;;;23.07;2.00;;;10.50;97.60;;;;;;5092420;28;20448;-69
2023/03/29 08:54:14;;;;;;;7.37;1.70;;;10.50;97.30;;;;;;5091997;28;21231;-68
2023/03/29 08:56:43;;;;;;;7.67;1.77;;;10.60;96.90;;;;;;5092250;28;21116;-68
2023/03/29 08:59:23;;;;;;;9.80;2.47;;;10.50;96.70;;;;;;5091966;28;20411;-68
2023/03/29 09:01:52;;;;;;;5.80;1.53;;;10.50;96.60;;;;;;5091495;28;20446;-69
2023/03/29 09:04:26;;;;;;;2.07;1.40;;;10.50;96.00;;;;;;5091549;28;20417;-68
2023/03/29 09:06:53;;;;;;;1.47;1.33;;;10.50;96.00;;;;;;5091262;28;20421;-69
2023/03/29 09:09:21;;;;;;;24.73;2.40;;;10.60;96.90;;;;;;5091611;28;21040;-68
2023/03/29 09:11:56;;;;;;;6.20;1.33;;;10.70;96.40;;;;;;5091354;28;20449;-68
2023/03/29 09:14:37;;;;;;;1.33;1.23;;;10.80;95.10;;;;;;5091263;28;20456;-69
2023/03/29 09:17:35;;;;;;;3.43;1.43;;;10.90;95.00;;;;;;5091234;28;20469;-68
2023/03/29 09:20:31;;;;;;;3.23;1.50;;;11.00;95.30;;;;;;5046102;28;20478;-69
2023/03/29 09:23:11;;;;;;;1.13;1.00;;;11.10;95.40;;;;;;5091400;28;20437;-70
2023/03/29 09:26:15;;;;;;;16.50;1.80;;;11.10;95.80;;;;;;5091525;28;20393;-69
2023/03/29 09:29:03;;;;;;;8.47;2.50;;;11.30;95.60;;;;;;5090722;28;20920;-69
2023/03/29 09:31:34;;;;;;;4.47;1.57;;;11.30;93.80;;;;;;5089653;28;20824;-69
2023/03/29 09:34:28;;;;;;;9.43;1.57;;;11.40;93.70;;;;;;5090812;28;20427;-68
2023/03/29 09:37:06;;;;;;;5.60;1.47;;;11.70;94.00;;;;;;5090613;28;20440;-68
2023/03/29 09:39:31;;;;;;;3.70;1.57;;;11.60;94.10;;;;;;5090695;28;20415;-69
2023/03/29 09:42:03;;;;;;;7.77;1.50;;;11.60;93.50;;;;;;5090413;28;20442;-68
2023/03/29 09:45:08;;;;;;;4.33;1.90;;;11.70;93.80;;;;;;5089097;28;20552;-69
2023/03/29 09:47:37;;;;;;;3.07;1.20;;;11.70;93.20;;;;;;5088190;28;20478;-69
2023/03/29 09:50:28;;;;;;;4.37;1.77;;;11.90;93.10;;;;;;5090471;28;20865;-68
2023/03/29 09:52:54;;;;;;;2.80;1.67;;;12.10;92.10;;;;;;5079431;28;21232;-69
2023/03/29 09:55:26;;;;;;;6.33;1.70;;;12.40;92.00;;;;;;5089190;28;20449;-68
2023/03/29 09:57:51;;;;;;;7.97;1.30;;;12.40;90.70;;;;;;5090842;28;20186;-68
2023/03/29 10:00:17;;;;;;;2.83;1.50;;;12.20;90.80;;;;;;5089780;28;20501;-69
2023/03/29 10:02:51;;;;;;;8.17;1.60;;;12.10;90.80;;;;;;5090714;28;20164;-68
2023/03/29 10:05:17;;;;;;;1.77;1.37;;;12.00;92.40;;;;;;5090762;28;20414;-69
2023/03/29 10:07:52;;;;;;;2.83;1.33;;;12.10;91.80;;;;;;5090362;28;20947;-69
2023/03/29 10:10:28;;;;;;;1.70;0.97;;;12.30;90.90;;;;;;5090134;28;20191;-68
2023/03/29 10:13:02;;;;;;;5.23;1.30;;;12.50;90.40;;;;;;5090665;28;21248;-68
2023/03/29 10:15:29;;;;;;;3.83;1.43;;;12.70;90.40;;;;;;5090230;28;20833;-69
2023/03/29 10:18:09;;;;;;;2.10;1.23;;;12.70;89.50;;;;;;5090332;28;20418;-69
2023/03/29 10:20:37;;;;;;;2.37;1.30;;;13.00;89.30;;;;;;5089890;28;20433;-69
2023/03/29 10:23:06;;;;;;;3.67;1.60;;;13.00;88.10;;;;;;5089732;28;20775;-69
2023/03/29 10:25:35;;;;;;;2.07;1.37;;;13.10;87.80;;;;;;5089770;28;20421;-69
2023/03/29 10:28:10;;;;;;;2.70;1.60;;;13.40;87.70;;;;;;5089821;28;20492;-69
2023/03/29 10:30:37;;;;;;;2.90;1.60;;;13.50;86.20;;;;;;5089854;28;20435;-69
2023/03/29 10:33:06;;;;;;;1.83;1.50;;;13.50;86.50;;;;;;5089904;28;20941;-69
2023/03/29 10:35:37;;;;;;;4.83;1.43;;;13.60;84.80;;;;;;5089837;28;20548;-69
2023/03/29 10:38:08;;;;;;;1.93;1.20;;;13.80;85.40;;;;;;5089593;28;20947;-69
2023/03/29 10:40:40;;;;;;;2.37;1.30;;;14.20;85.00;;;;;;5089850;28;20411;-69
2023/03/29 10:43:26;;;;;;;6.13;1.60;;;14.60;82.10;;;;;;5089659;28;20453;-69
2023/03/29 10:45:54;;;;;;;2.90;1.60;;;15.30;82.60;;;;;;5089420;28;21078;-69
2023/03/29 10:48:27;;;;;;;5.93;1.37;;;16.00;79.30;;;;;;5089490;28;20459;-69
2023/03/29 10:50:56;;;;;;;4.03;1.80;;;16.90;75.20;;;;;;5087863;28;20440;-69
2023/03/29 10:53:25;;;;;;;1.73;1.37;;;17.30;75.10;;;;;;5089555;28;20435;-69
2023/03/29 10:56:40;;;;;;;2.03;1.30;;;17.50;74.50;;;;;;5087946;28;21003;-69
2023/03/29 10:59:32;;;;;;;3.40;1.50;;;17.50;73.20;;;;;;5072519;28;20511;-69
2023/03/29 11:02:12;;;;;;;3.20;1.83;;;17.30;66.60;;;;;;5085885;28;20448;-68
2023/03/29 11:04:55;;;;;;;3.93;1.63;;;17.60;68.90;;;;;;5090134;28;20460;-69
2023/03/29 11:07:25;;;;;;;2.10;1.53;;;18.10;68.00;;;;;;5090396;28;20518;-68
2023/03/29 11:10:19;;;;;;;3.77;1.90;;;18.80;67.10;;;;;;5090285;28;20417;-69
2023/03/29 11:13:13;;;;;;;2.27;1.60;;;19.20;64.50;;;;;;5088148;28;20471;-69
2023/03/29 11:15:52;;;;;;;4.43;1.87;;;19.10;66.20;;;;;;5087949;28;20514;-69
2023/03/29 11:18:57;;;;;;;2.63;1.30;;;18.50;60.50;;;;;;5089641;28;20783;-69
2023/03/29 11:21:48;;;;;;;2.90;1.27;;;18.10;59.90;;;;;;5089144;28;20461;-69
2023/03/29 11:24:47;;;;;;;1.63;1.23;;;17.90;63.50;;;;;;5089090;28;20414;-68
2023/03/29 11:27:24;;;;;;;1.67;1.40;;;17.80;61.70;;;;;;5050333;28;20450;-68
2023/03/29 11:30:01;;;;;;;5.13;1.30;;;17.40;60.20;;;;;;5088578;28;20409;-69
2023/03/29 11:33:01;;;;;;;3.43;1.70;;;17.20;64.50;;;;;;5088547;28;20443;-68
2023/03/29 11:35:55;;;;;;;3.03;1.40;;;17.20;63.00;;;;;;5088562;28;21349;-69
2023/03/29 11:38:31;;;;;;;6.10;1.83;;;17.00;63.50;;;;;;5088438;28;20864;-69
2023/03/29 11:41:17;;;;;;;2.37;1.00;;;16.90;61.00;;;;;;5086935;28;20459;-69
2023/03/29 11:44:21;;;;;;;20.33;1.70;;;16.80;61.40;;;;;;5086900;28;20415;-69
2023/03/29 11:47:15;;;;;;;4.33;1.20;;;16.60;62.10;;;;;;5088332;28;20448;-69
2023/03/29 11:49:53;;;;;;;1.33;1.00;;;16.60;63.50;;;;;;5088160;28;20414;-68
2023/03/29 11:52:31;;;;;;;5.50;1.70;;;16.50;64.20;;;;;;5088214;28;20455;-69
2023/03/29 11:55:02;;;;;;;2.17;1.30;;;16.30;62.60;;;;;;5088289;28;20456;-68
2023/03/29 11:57:34;;;;;;;5.43;1.97;;;16.10;63.50;;;;;;5087866;28;20406;-69
2023/03/29 12:00:14;;;;;;;2.60;1.30;;;16.00;62.50;;;;;;5087847;28;20924;-69
2023/03/29 12:03:05;;;;;;;2.23;1.13;;;15.80;64.20;;;;;;5087850;28;20533;-69
2023/03/29 12:05:43;;;;;;;2.90;1.20;;;15.80;65.90;;;;;;5087853;28;20447;-69
2023/03/29 12:08:22;;;;;;;3.57;1.40;;;15.70;63.90;;;;;;5087750;28;20447;-68
2023/03/29 12:11:07;;;;;;;4.40;1.33;;;15.80;63.20;;;;;;5086118;28;20835;-68
2023/03/29 12:13:43;;;;;;;1.33;1.13;;;15.80;65.90;;;;;;5087779;28;20436;-68
2023/03/29 12:16:33;;;;;;;1.10;1.00;;;16.00;66.50;;;;;;5086032;28;20463;-69
2023/03/29 12:19:13;;;;;;;3.53;0.87;;;16.10;65.10;;;;;;5087817;28;20920;-68
2023/03/29 12:21:41;;;;;;;2.23;1.40;;;16.00;63.10;;;;;;5087683;28;20475;-68
2023/03/29 12:24:11;;;;;;;2.30;0.80;;;15.90;64.00;;;;;;5085545;28;20456;-68
2023/03/29 12:27:25;;;;;;;8.10;1.30;;;15.90;63.20;;;;;;5087645;28;20411;-68
2023/03/29 12:30:17;;;;;;;2.93;1.20;;;15.90;64.70;;;;;;5004818;28;20458;-68
2023/03/29 12:32:53;;;;;;;1.90;0.80;;;15.90;66.00;;;;;;5005037;28;20417;-68
2023/03/29 12:35:32;;;;;;;3.10;1.40;;;15.90;63.80;;;;;;5063442;28;20558;-68
2023/03/29 12:38:22;;;;;;;2.17;1.20;;;15.90;64.50;;;;;;5087579;28;20838;-68
2023/03/29 12:40:55;;;;;;;4.93;1.20;;;16.10;65.90;;;;;;5076840;28;21117;-67
2023/03/29 12:43:36;;;;;;;6.90;1.10;;;16.00;65.60;;;;;;5087536;28;20573;-68
2023/03/29 12:46:06;;;;;;;2.60;1.20;;;16.00;66.20;;;;;;5087343;28;20424;-68
2023/03/29 12:48:33;;;;;;;3.33;1.00;;;15.90;66.60;;;;;;5087463;28;20424;-68
2023/03/29 12:51:15;;;;;;;3.00;1.23;;;16.00;67.00;;;;;;5087411;28;20509;-68
2023/03/29 12:53:53;;;;;;;3.30;0.97;;;15.90;65.40;;;;;;5086159;28;20434;-68
2023/03/29 12:56:22;;;;;;;1.73;1.00;;;16.00;65.60;;;;;;5087626;28;20479;-68
2023/03/29 12:58:53;;;;;;;1.60;1.03;;;16.10;67.50;;;;;;5087698;28;20484;-68
2023/03/29 13:01:29;;;;;;;2.73;0.90;;;15.90;71.20;;;;;;5087822;28;20425;-67
2023/03/29 13:04:02;;;;;;;2.37;1.10;;;15.70;72.80;;;;;;5088167;28;20473;-68
2023/03/29 13:06:52;;;;;;;2.97;1.17;;;15.40;76.60;;;;;;5086473;28;20785;-68
2023/03/29 13:09:28;;;;;;;4.10;1.00;;;15.10;88.70;;;;;;5086085;28;20845;-69
2023/03/29 13:12:05;;;;;;;8.20;2.27;;;15.40;84.70;;;;;;5086150;28;20428;-68
2023/03/29 13:14:36;;;;;;;4.13;1.67;;;15.70;80.20;;;;;;5087504;28;20449;-68
2023/03/29 13:17:08;;;;;;;4.20;0.90;;;15.80;80.10;;;;;;5086488;28;20941;-68